Time;durP1;ratioP1;P1;durP2;ratioP2;P2;SDS_P1;SDS_P2;PMS_P1;PMS_P2;Temp;Humidity;BMP_temperature;BMP_pressure;BME280_temperature;BME280_humidity;BME280_pressure;Samples;Min_cycle;Max_cycle;Signal;HPM_P1;HPM_P2
2021/05/20 00:02:10;;;;;;;0.80;0.80;;;;;;;;;;4957582;29;20414;-73
2021/05/20 00:04:36;;;;;;;1.53;0.63;;;;;;;;;;4939837;29;20485;-73
2021/05/20 00:07:02;;;;;;;2.60;1.17;;;;;;;;;;4957537;29;20987;-74
2021/05/20 00:09:29;;;;;;;6.43;1.30;;;;;;;;;;4957331;29;20427;-72
2021/05/20 00:11:55;;;;;;;2.07;1.07;;;;;;;;;;4957288;29;20858;-74
2021/05/20 00:17:27;;;;;;;1.63;0.77;;;;;;;;;;4957213;29;20486;-73
2021/05/20 00:19:53;;;;;;;1.20;0.80;;;;;;;;;;4957161;29;20418;-73
2021/05/20 00:22:19;;;;;;;0.70;0.70;;;;;;;;;;4940174;29;20437;-76
2021/05/20 00:24:45;;;;;;;1.07;0.70;;;;;;;;;;4957032;29;20413;-74
2021/05/20 00:27:11;;;;;;;0.90;0.70;;;;;;;;;;4957056;29;20506;-73
2021/05/20 00:32:40;;;;;;;0.50;0.47;;;;;;;;;;4956900;29;20556;-72
2021/05/20 00:35:07;;;;;;;0.93;0.80;;;;;;;;;;4938165;29;20519;-72
2021/05/20 00:37:33;;;;;;;1.10;0.90;;;;;;;;;;4957260;29;20476;-73
2021/05/20 00:39:58;;;;;;;3.10;0.90;;;;;;;;;;4956624;29;20482;-73
2021/05/20 00:42:25;;;;;;;1.57;0.80;;;;;;;;;;4957025;29;20429;-74
2021/05/20 00:47:54;;;;;;;0.80;0.80;;;;;;;;;;4956579;29;20412;-72
2021/05/20 00:50:20;;;;;;;0.80;0.80;;;;;;;;;;4956747;29;20416;-75
2021/05/20 00:52:46;;;;;;;1.37;1.07;;;;;;;;;;4956668;29;20412;-73
2021/05/20 00:55:13;;;;;;;1.50;1.13;;;;;;;;;;4956417;29;20424;-75
2021/05/20 00:57:40;;;;;;;0.90;0.90;;;;;;;;;;4939562;29;20475;-74
2021/05/20 01:00:11;;;;;;;1.10;1.00;;;;;;;;;;4956644;29;20425;-73
2021/05/20 01:02:37;;;;;;;1.40;0.60;;;;;;;;;;4956732;29;20836;-73
2021/05/20 01:05:08;;;;;;;1.30;1.00;;;;;;;;;;4956318;29;20827;-73
2021/05/20 01:07:34;;;;;;;1.37;0.97;;;;;;;;;;4956502;29;20821;-74
2021/05/20 01:10:00;;;;;;;1.60;0.90;;;;;;;;;;4956665;29;20782;-74
2021/05/20 01:12:26;;;;;;;1.50;0.63;;;;;;;;;;4938932;29;20465;-73
2021/05/20 01:17:56;;;;;;;1.00;0.90;;;;;;;;;;4956045;29;20477;-74
2021/05/20 01:20:33;;;;;;;2.93;0.80;;;;;;;;;;4955965;29;20416;-73
2021/05/20 01:23:06;;;;;;;1.10;1.00;;;;;;;;;;4956366;29;20424;-74
2021/05/20 01:25:33;;;;;;;0.73;0.70;;;;;;;;;;4956287;29;20506;-75
2021/05/20 01:28:03;;;;;;;3.27;0.70;;;;;;;;;;4956286;29;20513;-72
2021/05/20 01:30:32;;;;;;;0.77;0.70;;;;;;;;;;4955434;29;20444;-73
2021/05/20 01:32:59;;;;;;;1.33;0.80;;;;;;;;;;4955825;29;20428;-74
2021/05/20 01:35:25;;;;;;;1.60;0.90;;;;;;;;;;4955618;29;20747;-73
2021/05/20 01:37:52;;;;;;;0.80;0.67;;;;;;;;;;4955686;29;20486;-74
2021/05/20 01:40:18;;;;;;;2.30;0.90;;;;;;;;;;4955727;29;20515;-74
2021/05/20 01:42:44;;;;;;;1.47;1.00;;;;;;;;;;4956118;29;20452;-73
2021/05/20 01:48:14;;;;;;;1.57;1.47;;;;;;;;;;4955585;29;20422;-73
2021/05/20 01:50:40;;;;;;;0.80;0.80;;;;;;;;;;4938216;29;20441;-75
2021/05/20 01:53:06;;;;;;;1.33;0.80;;;;;;;;;;4938230;29;20456;-74
2021/05/20 01:55:32;;;;;;;1.07;0.97;;;;;;;;;;4955301;29;20494;-73
2021/05/20 01:57:58;;;;;;;1.57;0.90;;;;;;;;;;4938422;29;20840;-73
2021/05/20 02:03:27;;;;;;;7.40;0.90;;;;;;;;;;4954828;29;20427;-74
2021/05/20 02:05:54;;;;;;;2.03;1.10;;;;;;;;;;4955169;28;20471;-72
2021/05/20 02:08:20;;;;;;;1.23;1.13;;;;;;;;;;4955284;29;20471;-73
2021/05/20 02:10:46;;;;;;;1.23;0.93;;;;;;;;;;4955170;29;20419;-74
2021/05/20 02:19:00;;;;;;;1.60;1.07;;;;;;;;;;4954107;29;20442;-73
2021/05/20 02:21:26;;;;;;;0.80;0.80;;;;;;;;;;4954989;29;20442;-73
2021/05/20 02:23:52;;;;;;;0.63;0.63;;;;;;;;;;4955048;29;20606;-72
2021/05/20 02:26:18;;;;;;;2.00;1.37;;;;;;;;;;4954800;29;20475;-72
2021/05/20 02:28:44;;;;;;;1.30;0.80;;;;;;;;;;4955043;29;20454;-74
2021/05/20 02:31:10;;;;;;;1.80;0.93;;;;;;;;;;4937516;29;20539;-73
2021/05/20 02:33:36;;;;;;;1.90;1.33;;;;;;;;;;4954322;29;20772;-73
2021/05/20 02:36:02;;;;;;;2.10;1.07;;;;;;;;;;4954575;29;20443;-73
2021/05/20 02:38:28;;;;;;;1.13;0.77;;;;;;;;;;4954706;29;20541;-73
2021/05/20 02:40:54;;;;;;;0.87;0.87;;;;;;;;;;4954391;29;20423;-72
2021/05/20 02:43:20;;;;;;;1.60;1.00;;;;;;;;;;4954710;29;20427;-73
2021/05/20 02:48:50;;;;;;;0.80;0.80;;;;;;;;;;4953397;29;20415;-72
2021/05/20 02:51:18;;;;;;;1.10;0.90;;;;;;;;;;4954530;29;20419;-72
2021/05/20 02:53:44;;;;;;;2.50;1.17;;;;;;;;;;4954906;29;20813;-74
2021/05/20 02:56:10;;;;;;;1.40;0.97;;;;;;;;;;4954523;29;20441;-72
2021/05/20 02:58:37;;;;;;;1.23;1.13;;;;;;;;;;4953598;28;20510;-73
2021/05/20 03:04:07;;;;;;;1.07;0.97;;;;;;;;;;4954038;28;20426;-73
2021/05/20 03:06:33;;;;;;;1.23;1.00;;;;;;;;;;4954277;29;20448;-73
2021/05/20 03:08:59;;;;;;;1.70;1.30;;;;;;;;;;4954601;29;20418;-73
2021/05/20 03:11:26;;;;;;;1.37;1.00;;;;;;;;;;4954361;29;20431;-73
2021/05/20 03:13:52;;;;;;;0.90;0.60;;;;;;;;;;4954198;29;20874;-73
2021/05/20 03:16:18;;;;;;;2.30;1.30;;;;;;;;;;4954210;29;20511;-72
2021/05/20 03:18:44;;;;;;;1.00;0.70;;;;;;;;;;4954156;29;20795;-73
2021/05/20 03:21:10;;;;;;;3.40;0.90;;;;;;;;;;4954132;29;20423;-72
2021/05/20 03:23:36;;;;;;;4.23;1.23;;;;;;;;;;4954160;29;20461;-71
2021/05/20 03:26:02;;;;;;;5.67;0.90;;;;;;;;;;4936893;29;20446;-73
2021/05/20 03:28:28;;;;;;;1.40;0.90;;;;;;;;;;4954402;29;20427;-73
2021/05/20 03:33:58;;;;;;;2.13;0.77;;;;;;;;;;4953922;29;20434;-74
2021/05/20 03:36:24;;;;;;;2.03;1.00;;;;;;;;;;4954127;29;21122;-73
2021/05/20 03:38:50;;;;;;;1.10;1.00;;;;;;;;;;4953946;29;20423;-73
2021/05/20 03:41:16;;;;;;;0.80;0.80;;;;;;;;;;4954180;29;20416;-72
2021/05/20 03:43:42;;;;;;;3.10;1.27;;;;;;;;;;4936969;29;20441;-73
2021/05/20 03:49:11;;;;;;;1.00;0.67;;;;;;;;;;4953895;29;20512;-72
2021/05/20 03:51:37;;;;;;;1.30;1.20;;;;;;;;;;4954123;29;20436;-73
2021/05/20 03:54:04;;;;;;;1.10;0.90;;;;;;;;;;4937059;29;21020;-73
2021/05/20 03:56:30;;;;;;;1.70;1.10;;;;;;;;;;4953759;29;20439;-72
2021/05/20 03:58:56;;;;;;;1.33;0.90;;;;;;;;;;4953882;29;20774;-72
2021/05/20 04:04:25;;;;;;;1.80;0.73;;;;;;;;;;4953909;28;20462;-72
2021/05/20 04:06:51;;;;;;;1.43;1.17;;;;;;;;;;4954195;29;20787;-72
2021/05/20 04:09:17;;;;;;;1.23;1.00;;;;;;;;;;4954563;28;20455;-72
2021/05/20 04:11:43;;;;;;;1.33;0.90;;;;;;;;;;4957521;29;20423;-73
2021/05/20 04:14:09;;;;;;;0.80;0.80;;;;;;;;;;4956956;29;20426;-73
2021/05/20 04:19:39;;;;;;;1.47;1.10;;;;;;;;;;4956936;29;20426;-73
2021/05/20 04:22:05;;;;;;;1.27;0.90;;;;;;;;;;4957235;29;20424;-73
2021/05/20 04:24:31;;;;;;;0.80;0.80;;;;;;;;;;4956958;29;20415;-72
2021/05/20 04:26:57;;;;;;;0.80;0.77;;;;;;;;;;4957185;29;20515;-73
2021/05/20 04:29:23;;;;;;;0.70;0.70;;;;;;;;;;4956847;29;20454;-73
2021/05/20 04:31:49;;;;;;;0.83;0.80;;;;;;;;;;4957092;29;20427;-72
2021/05/20 04:34:15;;;;;;;0.60;0.53;;;;;;;;;;4956714;29;20420;-73
2021/05/20 04:36:41;;;;;;;1.07;0.97;;;;;;;;;;4957262;29;20432;-73
2021/05/20 04:39:07;;;;;;;1.03;0.93;;;;;;;;;;4957133;29;20828;-73
2021/05/20 04:41:33;;;;;;;2.97;0.83;;;;;;;;;;4957078;29;20455;-73
2021/05/20 04:43:59;;;;;;;2.17;1.20;;;;;;;;;;4957037;29;20416;-72
2021/05/20 04:49:28;;;;;;;0.80;0.80;;;;;;;;;;4956524;29;20860;-72
2021/05/20 04:51:54;;;;;;;1.57;1.23;;;;;;;;;;4956423;29;20552;-73
2021/05/20 04:54:20;;;;;;;0.87;0.87;;;;;;;;;;4956695;29;20872;-72
2021/05/20 04:56:46;;;;;;;1.27;0.80;;;;;;;;;;4956643;29;20466;-73
2021/05/20 04:59:12;;;;;;;1.73;1.63;;;;;;;;;;4956607;29;20505;-73
2021/05/20 05:04:41;;;;;;;1.20;1.13;;;;;;;;;;4956338;28;20573;-72
2021/05/20 05:07:07;;;;;;;1.20;1.10;;;;;;;;;;4956834;29;20420;-75
2021/05/20 05:09:33;;;;;;;1.17;1.07;;;;;;;;;;4956861;29;20479;-73
2021/05/20 05:11:59;;;;;;;0.90;0.90;;;;;;;;;;4956824;29;20423;-77
2021/05/20 05:14:25;;;;;;;1.20;1.10;;;;;;;;;;4956652;29;20407;-71
2021/05/20 05:19:55;;;;;;;1.70;0.90;;;;;;;;;;4956600;29;20876;-75
2021/05/20 05:22:21;;;;;;;1.03;0.93;;;;;;;;;;4939112;29;20451;-73
2021/05/20 05:24:47;;;;;;;1.17;1.00;;;;;;;;;;4956583;29;20433;-74
2021/05/20 05:27:14;;;;;;;1.43;0.93;;;;;;;;;;4956923;29;20410;-75
2021/05/20 05:29:41;;;;;;;2.17;1.33;;;;;;;;;;4939462;29;20421;-74
2021/05/20 05:35:10;;;;;;;0.97;0.87;;;;;;;;;;4955754;29;20495;-73
2021/05/20 05:37:36;;;;;;;1.63;0.93;;;;;;;;;;4938636;29;20493;-74
2021/05/20 05:40:03;;;;;;;0.87;0.87;;;;;;;;;;4955851;29;20816;-74
2021/05/20 05:42:29;;;;;;;0.73;0.60;;;;;;;;;;4955876;29;20444;-73
2021/05/20 05:44:55;;;;;;;1.30;1.20;;;;;;;;;;4956230;29;20414;-74
2021/05/20 05:47:21;;;;;;;0.80;0.80;;;;;;;;;;4954565;29;20483;-74
2021/05/20 05:49:49;;;;;;;0.87;0.87;;;;;;;;;;4954745;29;20414;-72
2021/05/20 05:52:21;;;;;;;1.10;1.00;;;;;;;;;;4954612;29;20426;-74
2021/05/20 05:54:47;;;;;;;2.10;0.70;;;;;;;;;;4954854;29;20520;-72
2021/05/20 05:57:13;;;;;;;0.90;0.90;;;;;;;;;;4954004;29;20761;-71
2021/05/20 05:59:40;;;;;;;1.07;0.97;;;;;;;;;;4955295;29;20450;-72
2021/05/20 06:05:10;;;;;;;3.17;1.27;;;;;;;;;;4954508;29;20529;-72
2021/05/20 06:07:36;;;;;;;1.70;1.47;;;;;;;;;;4955064;29;20435;-73
2021/05/20 06:10:03;;;;;;;1.10;1.00;;;;;;;;;;4955615;29;20425;-74
2021/05/20 06:12:29;;;;;;;1.30;1.20;;;;;;;;;;4955207;29;20492;-74
2021/05/20 06:14:55;;;;;;;0.90;0.90;;;;;;;;;;4955119;29;20503;-74
2021/05/20 06:20:24;;;;;;;1.27;0.90;;;;;;;;;;4954831;29;20505;-71
2021/05/20 06:22:51;;;;;;;2.40;1.37;;;;;;;;;;4955029;29;20862;-72
2021/05/20 06:25:17;;;;;;;1.90;1.13;;;;;;;;;;4954948;29;20442;-72
2021/05/20 06:27:43;;;;;;;3.03;1.10;;;;;;;;;;4954522;29;20423;-74
2021/05/20 06:30:09;;;;;;;1.00;0.90;;;;;;;;;;4954561;29;20877;-73
2021/05/20 06:35:39;;;;;;;0.80;0.80;;;;;;;;;;4954181;29;20429;-72
2021/05/20 06:38:05;;;;;;;0.97;0.90;;;;;;;;;;4954365;29;20474;-75
2021/05/20 06:40:31;;;;;;;3.13;1.03;;;;;;;;;;4937045;29;20755;-72
2021/05/20 06:42:57;;;;;;;1.03;0.97;;;;;;;;;;4954253;29;20825;-72
2021/05/20 06:45:23;;;;;;;2.27;1.10;;;;;;;;;;4954187;29;20483;-77
2021/05/20 06:50:53;;;;;;;1.23;1.00;;;;;;;;;;4951777;29;20494;-76
2021/05/20 06:53:22;;;;;;;1.10;1.00;;;;;;;;;;4936144;29;20435;-76
2021/05/20 06:55:48;;;;;;;0.80;0.53;;;;;;;;;;4953106;29;20485;-73
2021/05/20 07:00:41;;;;;;;0.90;0.57;;;;;;;;;;4953486;29;20422;-69
2021/05/20 07:03:15;;;;;;;1.17;0.70;;;;;;;;;;4952805;29;20411;-72
2021/05/20 07:05:42;;;;;;;2.20;0.83;;;;;;;;;;4952818;28;20470;-70
2021/05/20 07:08:08;;;;;;;2.67;1.10;;;;;;;;;;4953353;29;20557;-70
2021/05/20 07:10:34;;;;;;;0.87;0.87;;;;;;;;;;4953802;29;20423;-69
2021/05/20 07:13:01;;;;;;;0.67;0.67;;;;;;;;;;4953662;29;20755;-70
2021/05/20 07:15:29;;;;;;;0.83;0.83;;;;;;;;;;4936761;29;20432;-73
2021/05/20 07:20:58;;;;;;;0.90;0.90;;;;;;;;;;4953466;29;20451;-72
2021/05/20 07:23:25;;;;;;;1.40;1.30;;;;;;;;;;4953333;29;20796;-71
2021/05/20 07:25:51;;;;;;;1.67;1.30;;;;;;;;;;4953169;29;20499;-72
2021/05/20 07:28:17;;;;;;;1.10;1.03;;;;;;;;;;4953196;29;20419;-72
2021/05/20 07:30:43;;;;;;;2.40;1.30;;;;;;;;;;4953157;29;20416;-71
2021/05/20 07:36:12;;;;;;;1.03;0.80;;;;;;;;;;4953297;29;20459;-72
2021/05/20 07:38:39;;;;;;;1.40;1.10;;;;;;;;;;4953026;29;20537;-71
2021/05/20 07:41:06;;;;;;;1.07;0.70;;;;;;;;;;4953196;29;20466;-71
2021/05/20 07:43:32;;;;;;;0.83;0.83;;;;;;;;;;4953044;28;20422;-72
2021/05/20 07:51:46;;;;;;;1.17;0.93;;;;;;;;;;4957061;29;20422;-74
2021/05/20 07:54:12;;;;;;;0.90;0.90;;;;;;;;;;4939698;29;20470;-73
2021/05/20 07:56:38;;;;;;;1.17;1.07;;;;;;;;;;4956535;29;20411;-72
2021/05/20 07:59:04;;;;;;;0.93;0.93;;;;;;;;;;4956683;29;20458;-72
2021/05/20 08:01:32;;;;;;;1.87;1.40;;;;;;;;;;4956235;29;20482;-72
2021/05/20 08:04:08;;;;;;;1.60;1.50;;;;;;;;;;4956453;28;20878;-79
2021/05/20 08:07:01;;;;;;;0.80;0.80;;;;;;;;;;4956574;29;20407;-74
2021/05/20 08:11:46;;;;;;;0.90;0.80;;;;;;;;;;4954030;29;20496;-76
2021/05/20 08:14:15;;;;;;;0.70;0.70;;;;;;;;;;4954721;29;20501;-75
2021/05/20 08:16:41;;;;;;;0.80;0.57;;;;;;;;;;4954771;29;20418;-74
2021/05/20 08:19:14;;;;;;;0.70;0.60;;;;;;;;;;4955678;29;20958;-71
2021/05/20 08:21:42;;;;;;;1.07;0.97;;;;;;;;;;4955926;29;20520;-72
2021/05/20 08:24:08;;;;;;;2.20;1.00;;;;;;;;;;4955694;29;20431;-73
2021/05/20 08:26:34;;;;;;;0.93;0.70;;;;;;;;;;4955745;29;20412;-71
2021/05/20 08:29:00;;;;;;;1.80;0.70;;;;;;;;;;4955704;29;20921;-75
2021/05/20 08:31:29;;;;;;;0.87;0.87;;;;;;;;;;4955819;29;20439;-75
2021/05/20 08:33:55;;;;;;;0.70;0.70;;;;;;;;;;4955807;29;20430;-72
2021/05/20 08:36:21;;;;;;;0.50;0.50;;;;;;;;;;4938651;29;21016;-78
2021/05/20 08:38:47;;;;;;;2.33;0.80;;;;;;;;;;4955802;29;20475;-71
2021/05/20 08:41:17;;;;;;;0.60;0.60;;;;;;;;;;4955328;29;20778;-74
2021/05/20 08:43:43;;;;;;;0.90;0.70;;;;;;;;;;4955494;29;20506;-76
2021/05/20 08:46:09;;;;;;;0.73;0.63;;;;;;;;;;4955758;29;20439;-73
2021/05/20 08:51:38;;;;;;;0.73;0.70;;;;;;;;;;4955639;29;20994;-76
2021/05/20 08:54:04;;;;;;;1.40;0.90;;;;;;;;;;4938185;29;20518;-74
2021/05/20 08:56:30;;;;;;;1.00;0.80;;;;;;;;;;4954395;28;20424;-73
2021/05/20 08:58:59;;;;;;;1.20;0.80;;;;;;;;;;4955405;29;21036;-74
2021/05/20 09:01:33;;;;;;;1.87;0.80;;;;;;;;;;4955272;29;20403;-74
2021/05/20 09:07:07;;;;;;;0.83;0.60;;;;;;;;;;4955745;29;20426;-73
2021/05/20 09:09:34;;;;;;;3.50;0.80;;;;;;;;;;4955548;29;20486;-72
2021/05/20 09:12:00;;;;;;;0.60;0.60;;;;;;;;;;4955161;29;20435;-74
2021/05/20 09:14:29;;;;;;;1.83;0.60;;;;;;;;;;4955086;29;20417;-74
2021/05/20 09:17:07;;;;;;;1.30;0.80;;;;;;;;;;4955195;29;20455;-73
2021/05/20 09:19:33;;;;;;;2.80;0.60;;;;;;;;;;4955505;29;20907;-75
2021/05/20 09:22:17;;;;;;;1.00;0.60;;;;;;;;;;4955905;29;20451;-76
2021/05/20 09:24:50;;;;;;;0.77;0.73;;;;;;;;;;4955500;29;20782;-72
2021/05/20 09:27:36;;;;;;;1.57;0.50;;;;;;;;;;4955362;29;20475;-72
2021/05/20 09:30:09;;;;;;;1.20;0.73;;;;;;;;;;4955583;29;20419;-76
2021/05/20 09:32:35;;;;;;;0.57;0.57;;;;;;;;;;4955737;29;20412;-78
2021/05/20 09:35:02;;;;;;;0.50;0.50;;;;;;;;;;4955741;29;20425;-80
2021/05/20 09:37:28;;;;;;;0.50;0.50;;;;;;;;;;4955567;29;20467;-78
2021/05/20 09:40:01;;;;;;;0.80;0.60;;;;;;;;;;4938389;29;20922;-77
2021/05/20 09:42:31;;;;;;;0.53;0.53;;;;;;;;;;4956791;29;20455;-80
2021/05/20 09:45:07;;;;;;;1.07;0.70;;;;;;;;;;4958093;29;20903;-80
2021/05/20 09:47:33;;;;;;;0.50;0.50;;;;;;;;;;4958023;29;20423;-78
2021/05/20 09:50:01;;;;;;;1.90;0.77;;;;;;;;;;4956805;29;20428;-77
2021/05/20 09:52:27;;;;;;;0.90;0.70;;;;;;;;;;4958090;29;20499;-81
2021/05/20 09:54:54;;;;;;;0.60;0.60;;;;;;;;;;4957596;29;20423;-82
2021/05/20 09:57:40;;;;;;;0.90;0.60;;;;;;;;;;4957768;29;20608;-80
2021/05/20 10:00:09;;;;;;;0.70;0.60;;;;;;;;;;4956816;29;20515;-79
2021/05/20 10:02:35;;;;;;;0.50;0.40;;;;;;;;;;4955932;29;20583;-77
2021/05/20 10:05:22;;;;;;;0.93;0.50;;;;;;;;;;4954824;29;20508;-76
2021/05/20 10:07:48;;;;;;;1.40;0.67;;;;;;;;;;4925018;28;20427;-79
2021/05/20 10:10:14;;;;;;;0.50;0.50;;;;;;;;;;4954732;29;20482;-79
2021/05/20 10:12:44;;;;;;;0.70;0.60;;;;;;;;;;4937393;29;20463;-79
2021/05/20 10:15:11;;;;;;;0.70;0.60;;;;;;;;;;4954208;29;20462;-79
2021/05/20 10:17:37;;;;;;;2.50;0.60;;;;;;;;;;4953639;29;20483;-76
2021/05/20 10:20:05;;;;;;;1.67;0.70;;;;;;;;;;4954261;29;20424;-81
2021/05/20 10:22:32;;;;;;;0.60;0.60;;;;;;;;;;4953810;29;20431;-83
2021/05/20 10:24:58;;;;;;;2.97;0.90;;;;;;;;;;4954385;29;20423;-77
2021/05/20 10:27:24;;;;;;;0.97;0.70;;;;;;;;;;4953965;29;20439;-77
2021/05/20 10:29:51;;;;;;;0.60;0.50;;;;;;;;;;4954218;29;20411;-76
2021/05/20 10:32:17;;;;;;;0.63;0.63;;;;;;;;;;4954303;29;20790;-77
2021/05/20 10:37:58;;;;;;;1.83;0.63;;;;;;;;;;4953884;29;20566;-79
2021/05/20 10:40:24;;;;;;;1.50;1.40;;;;;;;;;;4954206;29;20415;-77
2021/05/20 10:43:01;;;;;;;1.63;0.53;;;;;;;;;;4953400;29;20446;-80
2021/05/20 10:45:27;;;;;;;1.80;0.50;;;;;;;;;;4953800;29;20415;-78
2021/05/20 10:48:07;;;;;;;1.83;0.90;;;;;;;;;;4953541;29;20486;-79
2021/05/20 10:50:52;;;;;;;2.10;0.90;;;;;;;;;;4954870;29;20423;-84
2021/05/20 10:53:46;;;;;;;2.20;0.50;;;;;;;;;;4954044;29;20938;-82
2021/05/20 10:56:12;;;;;;;0.93;0.73;;;;;;;;;;4953708;29;20420;-87
2021/05/20 10:58:38;;;;;;;1.67;0.70;;;;;;;;;;4936214;29;20471;-80
2021/05/20 11:01:06;;;;;;;0.73;0.73;;;;;;;;;;4953794;29;20510;-80
2021/05/20 11:03:47;;;;;;;0.80;0.70;;;;;;;;;;4953656;29;20466;-80
2021/05/20 11:06:13;;;;;;;3.03;0.67;;;;;;;;;;4954318;29;20479;-85
2021/05/20 11:08:39;;;;;;;1.13;0.60;;;;;;;;;;4937141;29;20520;-80
2021/05/20 11:11:09;;;;;;;0.50;0.40;;;;;;;;;;4954395;29;20512;-84
2021/05/20 11:13:35;;;;;;;0.80;0.60;;;;;;;;;;4953705;29;20431;-76
2021/05/20 11:16:13;;;;;;;0.40;0.30;;;;;;;;;;4954302;29;20430;-79
2021/05/20 11:18:39;;;;;;;0.80;0.70;;;;;;;;;;4954446;28;21048;-78
2021/05/20 11:21:06;;;;;;;4.00;1.33;;;;;;;;;;4957715;29;20419;-78
2021/05/20 11:23:32;;;;;;;1.40;0.50;;;;;;;;;;4957876;29;20451;-79
2021/05/20 11:26:00;;;;;;;0.50;0.40;;;;;;;;;;4957342;29;20419;-78
2021/05/20 11:28:26;;;;;;;1.63;0.50;;;;;;;;;;4957355;29;20424;-79
2021/05/20 11:30:56;;;;;;;1.23;0.50;;;;;;;;;;4957238;29;20430;-81
2021/05/20 11:33:23;;;;;;;0.70;0.30;;;;;;;;;;4956921;29;20941;-81
2021/05/20 11:36:11;;;;;;;0.80;0.50;;;;;;;;;;4956938;29;20407;-83
2021/05/20 11:38:37;;;;;;;2.37;0.60;;;;;;;;;;4957311;29;20545;-83
2021/05/20 11:41:12;;;;;;;1.13;0.73;;;;;;;;;;4956949;29;20427;-84
2021/05/20 11:43:38;;;;;;;1.70;0.70;;;;;;;;;;4957524;29;20403;-84
2021/05/20 11:46:16;;;;;;;0.87;0.80;;;;;;;;;;4956688;29;20799;-85
2021/05/20 11:49:03;;;;;;;0.60;0.50;;;;;;;;;;4956880;29;20404;-78
2021/05/20 11:51:44;;;;;;;1.17;0.70;;;;;;;;;;4956951;29;20419;-78
2021/05/20 11:54:13;;;;;;;0.63;0.60;;;;;;;;;;4957448;29;20419;-80
2021/05/20 11:56:40;;;;;;;1.30;0.53;;;;;;;;;;4957152;29;20495;-81
2021/05/20 11:59:06;;;;;;;0.40;0.30;;;;;;;;;;4957283;29;20451;-80
2021/05/20 12:01:33;;;;;;;1.03;0.50;;;;;;;;;;4957512;29;20411;-82
2021/05/20 12:04:00;;;;;;;0.50;0.50;;;;;;;;;;4956443;28;20510;-79
2021/05/20 12:06:26;;;;;;;0.53;0.47;;;;;;;;;;4939109;29;20443;-77
2021/05/20 12:09:08;;;;;;;0.50;0.40;;;;;;;;;;4956795;29;20482;-79
2021/05/20 12:11:34;;;;;;;1.90;0.40;;;;;;;;;;4956275;29;20912;-84
2021/05/20 12:14:01;;;;;;;1.17;0.50;;;;;;;;;;4956577;29;20481;-83
2021/05/20 12:16:27;;;;;;;2.70;0.70;;;;;;;;;;4939577;29;20435;-82
2021/05/20 12:18:53;;;;;;;0.50;0.50;;;;;;;;;;4956231;29;21004;-80
2021/05/20 12:21:20;;;;;;;1.27;0.73;;;;;;;;;;4957828;29;20416;-79
2021/05/20 12:23:58;;;;;;;0.77;0.77;;;;;;;;;;4957334;29;20407;-85
2021/05/20 12:26:28;;;;;;;0.90;0.60;;;;;;;;;;4957380;29;20779;-78
2021/05/20 12:28:54;;;;;;;0.60;0.47;;;;;;;;;;4957917;29;20420;-86
2021/05/20 12:31:20;;;;;;;9.70;0.77;;;;;;;;;;4956576;28;20431;-79
2021/05/20 12:33:47;;;;;;;1.07;0.60;;;;;;;;;;4957317;29;20411;-79
2021/05/20 12:36:29;;;;;;;0.80;0.50;;;;;;;;;;4957656;29;20740;-80
2021/05/20 12:38:55;;;;;;;0.60;0.60;;;;;;;;;;4940372;29;20501;-81
2021/05/20 12:41:21;;;;;;;0.50;0.47;;;;;;;;;;4957198;29;20411;-81
2021/05/20 12:43:47;;;;;;;5.40;0.90;;;;;;;;;;4957552;29;20500;-81
2021/05/20 12:46:14;;;;;;;1.27;0.60;;;;;;;;;;4956716;29;20419;-82
2021/05/20 12:48:42;;;;;;;3.13;1.50;;;;;;;;;;4939847;29;20431;-80
2021/05/20 12:51:14;;;;;;;1.10;0.43;;;;;;;;;;4956707;29;20934;-80
2021/05/20 12:53:42;;;;;;;1.27;0.77;;;;;;;;;;4956652;29;20421;-81
2021/05/20 12:56:24;;;;;;;0.60;0.40;;;;;;;;;;4957167;29;20424;-81
2021/05/20 12:58:59;;;;;;;0.67;0.67;;;;;;;;;;4956769;29;20510;-80
2021/05/20 13:01:26;;;;;;;3.33;0.70;;;;;;;;;;4957045;29;20419;-80
2021/05/20 13:03:54;;;;;;;0.70;0.70;;;;;;;;;;4956338;28;20415;-81
2021/05/20 13:06:24;;;;;;;2.37;0.60;;;;;;;;;;4956646;29;20431;-80
2021/05/20 13:08:50;;;;;;;0.93;0.67;;;;;;;;;;4956888;29;20447;-82
2021/05/20 13:11:27;;;;;;;0.80;0.50;;;;;;;;;;4956514;29;20408;-80
2021/05/20 13:13:54;;;;;;;0.47;0.47;;;;;;;;;;4956700;29;20427;-81
2021/05/20 13:16:36;;;;;;;4.47;1.63;;;;;;;;;;4956727;29;20797;-79
2021/05/20 13:24:46;;;;;;;2.20;0.63;;;;;;;;;;4956643;29;20507;-81
2021/05/20 13:27:16;;;;;;;0.90;0.40;;;;;;;;;;4956641;29;20863;-81
2021/05/20 13:29:45;;;;;;;2.60;0.70;;;;;;;;;;4956534;29;20882;-80
2021/05/20 13:32:22;;;;;;;0.50;0.50;;;;;;;;;;4956285;29;20415;-81
2021/05/20 13:34:48;;;;;;;0.60;0.57;;;;;;;;;;4956294;29;20413;-80
2021/05/20 13:37:14;;;;;;;0.43;0.43;;;;;;;;;;4956771;29;20558;-80
2021/05/20 13:39:40;;;;;;;0.90;0.70;;;;;;;;;;4939130;29;20431;-82
2021/05/20 13:42:07;;;;;;;1.17;0.50;;;;;;;;;;4955860;28;20474;-79
2021/05/20 13:44:43;;;;;;;0.70;0.57;;;;;;;;;;4956303;29;20426;-79
2021/05/20 13:47:10;;;;;;;0.60;0.60;;;;;;;;;;4938999;29;20434;-83
2021/05/20 13:49:39;;;;;;;1.27;0.80;;;;;;;;;;4955820;29;20431;-81
2021/05/20 13:52:07;;;;;;;0.47;0.37;;;;;;;;;;4956155;29;20772;-80
2021/05/20 13:54:33;;;;;;;0.97;0.67;;;;;;;;;;4955962;29;20438;-83
2021/05/20 13:57:00;;;;;;;0.50;0.50;;;;;;;;;;4938614;29;20684;-82
2021/05/20 13:59:27;;;;;;;0.50;0.43;;;;;;;;;;4956051;29;20473;-81
2021/05/20 14:01:54;;;;;;;0.77;0.70;;;;;;;;;;4955922;29;20416;-81
2021/05/20 14:10:08;;;;;;;0.60;0.47;;;;;;;;;;4955813;29;20417;-81
2021/05/20 14:12:34;;;;;;;0.80;0.53;;;;;;;;;;4938708;29;20474;-82
2021/05/20 14:15:01;;;;;;;1.57;0.60;;;;;;;;;;4955856;29;20423;-81
2021/05/20 14:17:27;;;;;;;1.00;0.70;;;;;;;;;;4955304;29;20466;-76
2021/05/20 14:19:57;;;;;;;0.73;0.73;;;;;;;;;;4955531;29;20416;-76
2021/05/20 14:22:23;;;;;;;1.50;0.63;;;;;;;;;;4955794;29;20763;-78
2021/05/20 14:24:49;;;;;;;0.77;0.50;;;;;;;;;;4955735;29;20419;-78
2021/05/20 14:27:17;;;;;;;0.80;0.67;;;;;;;;;;4955401;29;20403;-79
2021/05/20 14:29:44;;;;;;;1.20;0.80;;;;;;;;;;4938004;29;20439;-86
2021/05/20 14:32:10;;;;;;;0.50;0.50;;;;;;;;;;4955044;29;20412;-82
2021/05/20 14:34:36;;;;;;;1.13;0.70;;;;;;;;;;4955205;29;20447;-83
2021/05/20 14:37:03;;;;;;;1.57;0.90;;;;;;;;;;4954757;29;20419;-81
2021/05/20 14:39:29;;;;;;;1.00;0.90;;;;;;;;;;4955301;29;20462;-83
2021/05/20 14:41:56;;;;;;;1.47;0.80;;;;;;;;;;4954159;29;20439;-80
2021/05/20 14:44:22;;;;;;;1.87;0.73;;;;;;;;;;4954623;29;20494;-81
2021/05/20 14:46:49;;;;;;;0.77;0.70;;;;;;;;;;4955195;29;20416;-83
2021/05/20 14:49:36;;;;;;;1.60;0.77;;;;;;;;;;4955471;29;20435;-80
2021/05/20 14:55:20;;;;;;;4.00;1.20;;;;;;;;;;4960747;28;20500;-82
2021/05/20 15:08:39;;;;;;;0.50;0.50;;;;;;;;;;4955296;29;20530;-83
2021/05/20 15:11:12;;;;;;;2.00;0.60;;;;;;;;;;4937475;29;20439;-81
2021/05/20 15:14:06;;;;;;;0.57;0.57;;;;;;;;;;4955030;29;20424;-81
2021/05/20 15:16:29;;;;;;;0.67;0.60;;;;;;;;;;4953929;29;20451;-79
2021/05/20 15:18:54;;;;;;;0.60;0.60;;;;;;;;;;4954406;29;20470;-81
2021/05/20 15:21:20;;;;;;;0.67;0.60;;;;;;;;;;4955293;29;20760;-81
2021/05/20 15:23:47;;;;;;;1.13;0.50;;;;;;;;;;4955003;29;20459;-82
2021/05/20 15:26:17;;;;;;;1.17;0.50;;;;;;;;;;4954845;29;20456;-81
2021/05/20 15:28:43;;;;;;;0.70;0.70;;;;;;;;;;4954821;29;20435;-77
2021/05/20 15:31:09;;;;;;;0.50;0.50;;;;;;;;;;4954598;29;20423;-76
2021/05/20 15:33:36;;;;;;;0.50;0.50;;;;;;;;;;4954595;29;20479;-77
2021/05/20 15:36:03;;;;;;;1.00;0.60;;;;;;;;;;4954600;29;20411;-80
2021/05/20 15:38:29;;;;;;;0.80;0.70;;;;;;;;;;4952620;29;20479;-76
2021/05/20 15:40:57;;;;;;;0.93;0.60;;;;;;;;;;4955027;29;20415;-84
2021/05/20 15:43:23;;;;;;;0.80;0.70;;;;;;;;;;4954102;29;20424;-82
2021/05/20 15:45:57;;;;;;;2.20;0.60;;;;;;;;;;4953391;29;20436;-80
2021/05/20 15:51:07;;;;;;;0.60;0.60;;;;;;;;;;4953721;29;20438;-81
2021/05/20 15:53:34;;;;;;;0.50;0.50;;;;;;;;;;4962854;29;20443;-85
2021/05/20 15:56:00;;;;;;;0.80;0.80;;;;;;;;;;4958292;29;20508;-84
2021/05/20 15:58:26;;;;;;;0.93;0.90;;;;;;;;;;4954696;29;20474;-88
2021/05/20 16:00:52;;;;;;;1.80;0.90;;;;;;;;;;4956210;29;20415;-85
2021/05/20 16:03:18;;;;;;;1.10;0.93;;;;;;;;;;4954136;29;20416;-83
2021/05/20 16:05:44;;;;;;;0.93;0.93;;;;;;;;;;4954298;28;20463;-80
2021/05/20 16:08:23;;;;;;;1.00;0.87;;;;;;;;;;4956613;29;20420;-81
2021/05/20 16:11:11;;;;;;;1.43;1.33;;;;;;;;;;4956766;29;20411;-81
2021/05/20 16:16:39;;;;;;;3.03;1.00;;;;;;;;;;4879284;29;20455;-82
2021/05/20 16:19:06;;;;;;;0.90;0.90;;;;;;;;;;4940848;29;20882;-82
2021/05/20 16:21:34;;;;;;;0.80;0.80;;;;;;;;;;4957605;29;20433;-79
2021/05/20 16:37:19;;;;;;;1.30;1.20;;;;;;;;;;4957648;29;20557;-75
2021/05/20 16:39:45;;;;;;;1.80;1.00;;;;;;;;;;4957329;29;20431;-78
2021/05/20 16:42:11;;;;;;;1.30;1.20;;;;;;;;;;4940366;29;20439;-82
2021/05/20 16:44:37;;;;;;;1.23;1.03;;;;;;;;;;4957343;29;20785;-81
2021/05/20 16:47:03;;;;;;;2.93;1.00;;;;;;;;;;4940043;29;20900;-81
2021/05/20 16:49:29;;;;;;;1.30;1.20;;;;;;;;;;4940228;29;20510;-82
2021/05/20 16:52:00;;;;;;;0.90;0.90;;;;;;;;;;4939658;29;20806;-81
2021/05/20 16:54:32;;;;;;;0.63;0.63;;;;;;;;;;4957329;29;20459;-78
2021/05/20 16:57:30;;;;;;;2.53;0.83;;;;;;;;;;4957307;29;20514;-79
2021/05/20 16:59:56;;;;;;;0.70;0.63;;;;;;;;;;4957096;29;20428;-79
2021/05/20 17:02:27;;;;;;;1.23;0.70;;;;;;;;;;4957120;29;20483;-79
2021/05/20 17:04:56;;;;;;;1.30;0.67;;;;;;;;;;4956312;28;20475;-83
2021/05/20 17:07:22;;;;;;;0.70;0.70;;;;;;;;;;4957416;29;20420;-82